Time;durP1;ratioP1;P1;durP2;ratioP2;P2;SDS_P1;SDS_P2;PMS_P1;PMS_P2;Temp;Humidity;BMP_temperature;BMP_pressure;BME280_temperature;BME280_humidity;BME280_pressure;Samples;Min_cycle;Max_cycle;Signal;HPM_P1;HPM_P2
2023/07/17 00:00:47;;;;;;;7.15;3.33;;;;;;;20.42;60.26;101254.63;5099198;28;20047;-61
2023/07/17 00:03:14;;;;;;;7.90;3.25;;;;;;;20.42;60.33;101259.41;5112895;27;20067;-61
2023/07/17 00:05:42;;;;;;;7.43;3.28;;;;;;;20.45;59.56;101255.88;5113314;28;20047;-61
2023/07/17 00:08:10;;;;;;;7.10;3.03;;;;;;;20.39;59.86;101260.97;5110392;27;20403;-61
2023/07/17 00:10:38;;;;;;;8.65;2.97;;;;;;;20.33;60.11;101262.41;5097426;28;20517;-61
2023/07/17 00:13:06;;;;;;;7.00;2.90;;;;;;;20.12;60.53;101259.09;5115242;28;20048;-62
2023/07/17 00:15:33;;;;;;;7.60;3.28;;;;;;;20.14;59.80;101260.38;5113942;28;20062;-62
2023/07/17 00:18:00;;;;;;;8.90;3.03;;;;;;;20.23;59.68;101253.78;5112318;28;20047;-61
2023/07/17 00:20:28;;;;;;;7.43;2.67;;;;;;;20.13;59.64;101261.56;5116152;28;20048;-61
2023/07/17 00:22:55;;;;;;;6.05;2.45;;;;;;;19.75;60.33;101249.44;5114081;28;20056;-62
2023/07/17 00:25:23;;;;;;;8.15;2.53;;;;;;;19.76;60.23;101251.03;5097728;28;20055;-61
2023/07/17 00:27:50;;;;;;;7.45;3.05;;;;;;;19.93;60.21;101254.25;5089687;28;20406;-61
2023/07/17 00:30:17;;;;;;;7.85;3.00;;;;;;;20.17;59.32;101246.84;5110710;28;20051;-61
2023/07/17 00:32:45;;;;;;;7.93;2.78;;;;;;;20.35;59.36;101248.88;5099955;27;20060;-61
2023/07/17 00:35:12;;;;;;;10.68;2.88;;;;;;;20.26;58.79;101248.25;5125667;27;20748;-61
2023/07/17 00:37:41;;;;;;;8.93;2.83;;;;;;;20.32;58.72;101259.97;5116178;28;20513;-61
2023/07/17 00:40:09;;;;;;;6.47;2.70;;;;;;;20.27;58.73;101251.88;5100945;27;20391;-61
2023/07/17 00:42:36;;;;;;;6.07;2.72;;;;;;;20.34;58.95;101260.44;5080265;28;20032;-62
2023/07/17 00:45:05;;;;;;;7.13;3.17;;;;;;;20.29;58.76;101266.31;5096983;28;20510;-62
2023/07/17 00:47:34;;;;;;;;;;;;;;;20.01;59.76;101263.66;5107578;28;20063;-60
2023/07/17 00:50:03;;;;;;;10.23;2.67;;;;;;;19.92;60.26;101260.22;5089403;28;20302;-61
2023/07/17 00:52:33;;;;;;;7.20;2.55;;;;;;;20.02;59.54;101268.06;5114783;28;20052;-62
2023/07/17 00:55:01;;;;;;;10.55;2.97;;;;;;;20.02;59.58;101263.28;5114591;28;20050;-61
2023/07/17 00:57:29;;;;;;;8.20;2.97;;;;;;;19.82;60.15;101271.97;5094975;28;20913;-61
2023/07/17 00:59:57;;;;;;;6.82;2.92;;;;;;;19.94;60.07;101267.09;5114614;28;20054;-62
2023/07/17 01:02:24;;;;;;;8.35;2.95;;;;;;;20.14;59.28;101270.72;5091943;28;20059;-61
2023/07/17 01:04:52;;;;;;;8.93;2.83;;;;;;;20.12;59.09;101264.69;5110142;28;20048;-61
2023/07/17 01:07:19;;;;;;;8.90;3.58;;;;;;;20.09;59.25;101269.03;5075726;28;20056;-61
2023/07/17 01:09:48;;;;;;;8.18;3.00;;;;;;;20.27;59.01;101277.06;5086542;28;20059;-60
2023/07/17 01:12:15;;;;;;;7.60;3.00;;;;;;;20.19;58.76;101275.28;5061274;28;20052;-62
2023/07/17 01:14:43;;;;;;;11.50;3.40;;;;;;;20.06;59.54;101271.75;5115145;28;20047;-62
2023/07/17 01:17:10;;;;;;;8.25;2.70;;;;;;;20.01;59.29;101277.63;5094371;28;20060;-61
2023/07/17 01:19:38;;;;;;;12.85;3.42;;;;;;;20.08;59.35;101280.59;5095199;28;20055;-61
2023/07/17 01:22:27;;;;;;;9.30;3.03;;;;;;;20.11;59.11;101274.25;5113041;28;20050;-62
2023/07/17 01:24:54;;;;;;;6.63;2.95;;;;;;;20.07;59.49;101285.38;5111371;28;20507;-61
2023/07/17 01:27:21;;;;;;;10.55;3.08;;;;;;;19.93;59.56;101276.63;5113286;28;20054;-61
2023/07/17 01:29:49;;;;;;;9.65;2.88;;;;;;;19.80;60.34;101277.94;5113891;28;20036;-61
2023/07/17 01:32:20;;;;;;;8.73;3.50;;;;;;;19.88;59.96;101284.47;5076086;28;20055;-61
2023/07/17 01:34:47;;;;;;;9.82;3.30;;;;;;;19.78;60.46;101277.47;5097041;28;20612;-61
2023/07/17 01:37:14;;;;;;;6.75;2.92;;;;;;;19.82;60.01;101285.94;5110766;28;20543;-61
2023/07/17 01:39:42;;;;;;;8.25;2.90;;;;;;;19.92;60.06;101277.81;5112072;28;20137;-61
2023/07/17 01:42:09;;;;;;;8.38;3.45;;;;;;;19.98;59.82;101286.72;5114288;28;20054;-61
2023/07/17 01:44:37;;;;;;;8.07;3.08;;;;;;;19.92;60.21;101294.59;5095526;28;20058;-61
2023/07/17 01:47:05;;;;;;;9.27;3.10;;;;;;;19.79;60.41;101295.84;5114276;28;20422;-61
2023/07/17 01:49:33;;;;;;;9.32;3.35;;;;;;;19.82;60.52;101289.53;5095504;28;20054;-61
2023/07/17 01:52:00;;;;;;;9.20;3.05;;;;;;;19.91;60.03;101290.16;5111971;28;20062;-61
2023/07/17 01:54:28;;;;;;;7.95;3.05;;;;;;;19.98;59.96;101292.31;5111414;28;20051;-62
2023/07/17 01:56:55;;;;;;;6.60;3.20;;;;;;;19.97;60.38;101285.09;5094589;28;20051;-61
2023/07/17 01:59:22;;;;;;;8.02;3.15;;;;;;;19.87;60.37;101286.50;5079350;28;20052;-62
2023/07/17 02:01:50;;;;;;;6.72;2.97;;;;;;;19.94;60.47;101291.44;5086618;28;20055;-61
2023/07/17 02:04:19;;;;;;;5.60;2.80;;;;;;;19.96;60.11;101284.28;5111718;28;20044;-60
2023/07/17 02:06:46;;;;;;;8.23;2.97;;;;;;;20.00;60.02;101284.38;5093396;28;20090;-62
2023/07/17 02:09:14;;;;;;;10.52;2.95;;;;;;;19.94;60.52;101289.47;5112241;28;20054;-61
2023/07/17 02:11:42;;;;;;;7.65;2.83;;;;;;;19.71;60.99;101284.84;5111051;28;20055;-61
2023/07/17 02:14:09;;;;;;;7.03;2.75;;;;;;;19.76;60.88;101284.59;5113044;28;20050;-60
2023/07/17 02:16:36;;;;;;;7.35;2.72;;;;;;;19.85;60.52;101294.41;5093504;28;20048;-61
2023/07/17 02:19:04;;;;;;;6.75;2.78;;;;;;;19.73;60.52;101294.53;5094245;28;20043;-61
2023/07/17 02:21:31;;;;;;;10.60;3.10;;;;;;;19.73;60.51;101283.34;5113351;28;20498;-62
2023/07/17 02:23:59;;;;;;;5.53;2.80;;;;;;;19.90;60.16;101294.16;5095135;28;20055;-61
2023/07/17 02:26:27;;;;;;;7.15;2.85;;;;;;;19.74;60.74;101293.34;5112848;28;20043;-62
2023/07/17 02:28:54;;;;;;;7.00;2.75;;;;;;;19.45;61.49;101298.56;5110273;28;20058;-61
2023/07/17 02:31:22;;;;;;;7.30;2.85;;;;;;;19.46;61.80;101297.38;5112069;28;20360;-61
2023/07/17 02:33:49;;;;;;;6.45;2.75;;;;;;;19.23;62.20;101299.91;5112618;28;20649;-61
2023/07/17 02:36:16;;;;;;;5.43;2.42;;;;;;;19.31;61.96;101296.19;5095184;28;20063;-60
2023/07/17 02:38:44;;;;;;;8.90;2.75;;;;;;;19.29;61.82;101294.88;5112269;28;20561;-61
2023/07/17 02:41:15;;;;;;;6.03;2.42;;;;;;;19.31;61.76;101295.38;5095298;28;20048;-61
2023/07/17 02:43:43;;;;;;;9.90;2.80;;;;;;;19.26;61.64;101299.22;5109972;28;20051;-60
2023/07/17 02:46:11;;;;;;;7.70;2.40;;;;;;;19.28;61.93;101296.06;5090677;28;20047;-61
2023/07/17 02:48:38;;;;;;;7.43;2.35;;;;;;;19.16;62.51;101298.94;5113759;28;20051;-61
2023/07/17 02:51:07;;;;;;;5.50;2.47;;;;;;;19.30;62.14;101302.13;5094038;28;20047;-61
2023/07/17 02:53:35;;;;;;;5.90;2.40;;;;;;;19.41;61.53;101306.84;5095044;28;20043;-66
2023/07/17 02:56:03;;;;;;;7.38;2.58;;;;;;;19.24;61.64;101309.13;5112141;28;20051;-61
2023/07/17 02:58:32;;;;;;;6.37;2.50;;;;;;;19.19;61.56;101312.19;5113314;28;20051;-61
2023/07/17 03:00:59;;;;;;;10.32;2.65;;;;;;;18.97;61.76;101313.53;5095422;28;20173;-61
2023/07/17 03:03:27;;;;;;;5.72;2.20;;;;;;;19.02;62.13;101321.69;5076847;28;20051;-61
2023/07/17 03:05:57;;;;;;;10.13;2.45;;;;;;;19.05;61.48;101321.78;5111756;28;20050;-61
2023/07/17 03:08:25;;;;;;;12.88;2.50;;;;;;;19.04;61.50;101320.16;5078164;28;20047;-61
2023/07/17 03:10:52;;;;;;;6.78;2.22;;;;;;;19.19;61.13;101314.97;5092770;28;20383;-62
2023/07/17 03:13:20;;;;;;;4.25;1.85;;;;;;;19.22;60.34;101317.03;5113788;28;20047;-60
2023/07/17 03:15:48;;;;;;;6.32;2.17;;;;;;;19.35;60.21;101321.44;5094387;28;20043;-61
2023/07/17 03:18:16;;;;;;;7.05;2.30;;;;;;;19.34;60.51;101309.44;5113268;28;20051;-60
2023/07/17 03:20:44;;;;;;;4.97;2.00;;;;;;;19.36;59.89;101307.09;5110796;28;20047;-61
2023/07/17 03:23:11;;;;;;;6.10;2.10;;;;;;;19.42;59.21;101314.03;5094525;28;20054;-61
2023/07/17 03:25:42;;;;;;;7.88;2.42;;;;;;;19.45;59.26;101312.53;5094875;28;20044;-60
2023/07/17 03:28:10;;;;;;;6.80;2.28;;;;;;;19.50;59.18;101312.25;5092171;28;20659;-61
2023/07/17 03:30:39;;;;;;;7.03;1.90;;;;;;;19.23;59.72;101322.25;5091565;28;20051;-61
2023/07/17 03:33:06;;;;;;;5.75;1.52;;;;;;;19.30;59.89;101322.50;5094136;28;20058;-61
2023/07/17 03:35:35;;;;;;;5.53;2.15;;;;;;;19.44;59.03;101319.28;5110764;28;20043;-61
2023/07/17 03:38:03;;;;;;;8.52;2.42;;;;;;;19.42;58.62;101332.81;5095193;28;20051;-61
2023/07/17 03:40:31;;;;;;;8.02;2.42;;;;;;;19.42;59.12;101332.81;5116284;28;20047;-62
2023/07/17 03:42:59;;;;;;;10.05;2.55;;;;;;;19.46;58.77;101328.94;5092413;28;20048;-62
2023/07/17 03:45:26;;;;;;;6.93;2.22;;;;;;;19.48;58.27;101334.97;5097763;28;20139;-61
2023/07/17 03:47:54;;;;;;;7.70;2.47;;;;;;;19.35;58.48;101338.19;5098772;28;20066;-61
2023/07/17 03:50:22;;;;;;;8.80;2.20;;;;;;;19.18;58.92;101342.06;5079735;28;20044;-61
2023/07/17 03:52:49;;;;;;;7.10;2.10;;;;;;;19.05;59.28;101343.31;5116579;28;20050;-61
2023/07/17 03:55:17;;;;;;;8.98;2.50;;;;;;;18.87;59.44;101340.00;5109095;28;20040;-62
2023/07/17 03:57:44;;;;;;;6.05;1.88;;;;;;;18.94;59.25;101345.78;5115856;28;20048;-61
2023/07/17 04:00:13;;;;;;;7.47;2.40;;;;;;;18.95;59.28;101349.41;5078806;28;20052;-60
2023/07/17 04:02:42;;;;;;;8.18;2.75;;;;;;;19.00;58.71;101349.94;5116550;28;20067;-61
2023/07/17 04:05:17;;;;;;;8.52;2.33;;;;;;;18.83;59.17;101347.44;5097124;28;20051;-61
2023/07/17 04:07:45;;;;;;;6.95;2.03;;;;;;;18.60;60.14;101353.91;5096688;28;20479;-61
2023/07/17 04:10:12;;;;;;;9.43;2.45;;;;;;;18.57;60.13;101351.81;5096217;28;20052;-61
2023/07/17 04:12:40;;;;;;;8.02;2.25;;;;;;;18.77;59.90;101351.66;5080640;28;20271;-61
2023/07/17 04:15:08;;;;;;;9.27;2.30;;;;;;;18.89;59.80;101348.00;5100286;28;20058;-61
2023/07/17 04:17:36;;;;;;;7.53;1.67;;;;;;;18.84;59.92;101353.84;5095285;28;20047;-60
2023/07/17 04:20:03;;;;;;;6.88;2.03;;;;;;;18.57;60.44;101352.63;5115009;28;20062;-62
2023/07/17 04:22:32;;;;;;;7.18;1.98;;;;;;;18.65;60.44;101351.69;5096035;28;20039;-61
2023/07/17 04:25:01;;;;;;;8.55;1.63;;;;;;;18.83;59.91;101353.03;5097784;28;20403;-63
2023/07/17 04:27:30;;;;;;;8.70;2.30;;;;;;;18.87;59.87;101359.53;5100364;27;20794;-62
2023/07/17 04:29:59;;;;;;;8.15;1.90;;;;;;;18.80;59.81;101364.91;5078936;28;20109;-61
2023/07/17 04:32:30;;;;;;;6.00;1.63;;;;;;;18.73;60.16;101358.28;5114052;28;20055;-62
2023/07/17 04:34:58;;;;;;;7.50;2.00;;;;;;;18.89;59.36;101357.22;5077424;28;20766;-61
2023/07/17 04:37:26;;;;;;;10.15;2.08;;;;;;;18.99;59.39;101361.47;5097240;28;20154;-61
2023/07/17 04:39:55;;;;;;;8.30;2.25;;;;;;;18.59;60.40;101364.25;5094409;28;20067;-62
2023/07/17 04:42:22;;;;;;;9.05;2.08;;;;;;;18.47;60.66;101363.47;5091161;28;20055;-61
2023/07/17 04:44:50;;;;;;;12.30;2.15;;;;;;;18.49;60.56;101363.91;5076941;28;20526;-61
2023/07/17 04:47:17;;;;;;;5.70;1.65;;;;;;;18.44;60.87;101365.00;5077015;28;20036;-63
2023/07/17 04:49:45;;;;;;;8.10;1.98;;;;;;;18.47;60.98;101369.84;5076533;28;20051;-62
2023/07/17 04:52:12;;;;;;;11.05;2.17;;;;;;;18.31;61.10;101366.13;5074467;28;20434;-61
2023/07/17 04:54:40;;;;;;;8.13;2.10;;;;;;;18.40;60.84;101372.41;5095220;28;20039;-61
2023/07/17 04:57:07;;;;;;;8.57;1.83;;;;;;;18.24;61.41;101373.44;5093507;28;20556;-62
2023/07/17 04:59:34;;;;;;;7.22;2.05;;;;;;;18.33;61.50;101368.53;5093463;28;20498;-61
2023/07/17 05:02:03;;;;;;;7.15;1.80;;;;;;;18.23;61.92;101369.84;5089792;28;20242;-61
2023/07/17 05:04:31;;;;;;;6.50;1.70;;;;;;;18.26;61.31;101373.91;5091315;28;20052;-62
2023/07/17 05:06:59;;;;;;;9.98;2.55;;;;;;;18.30;61.61;101370.06;5072719;28;20048;-61
2023/07/17 05:09:27;;;;;;;10.90;2.15;;;;;;;18.44;61.51;101370.56;5075595;28;20376;-62
2023/07/17 05:11:54;;;;;;;7.60;1.70;;;;;;;18.35;61.40;101378.22;5044959;28;20057;-62
2023/07/17 05:14:22;;;;;;;6.90;1.70;;;;;;;18.25;61.87;101383.44;5075243;28;20040;-62
2023/07/17 05:16:50;;;;;;;8.82;2.45;;;;;;;18.19;61.73;101376.44;5093087;28;20055;-62
2023/07/17 05:19:19;;;;;;;5.60;1.98;;;;;;;17.96;62.69;101378.88;5092672;28;20052;-61
2023/07/17 05:21:46;;;;;;;8.25;2.05;;;;;;;18.36;61.76;101381.81;5094473;28;20051;-62
2023/07/17 05:24:14;;;;;;;10.82;1.70;;;;;;;18.44;61.44;101390.09;5072028;28;20056;-62
2023/07/17 05:26:42;;;;;;;15.80;2.22;;;;;;;18.58;60.73;101389.72;5074843;28;20055;-61
2023/07/17 05:29:09;;;;;;;8.45;2.00;;;;;;;18.63;60.25;101389.47;5073916;28;20056;-62
2023/07/17 05:31:36;;;;;;;7.80;1.92;;;;;;;18.63;60.16;101387.50;5075841;28;20395;-62
2023/07/17 05:34:04;;;;;;;8.10;2.08;;;;;;;18.73;59.98;101394.56;5093261;28;20083;-61
2023/07/17 05:36:32;;;;;;;8.20;1.80;;;;;;;18.70;60.18;101393.31;5074495;28;20048;-61
2023/07/17 05:38:59;;;;;;;6.35;1.90;;;;;;;18.88;59.64;101391.84;5099784;27;20051;-61
2023/07/17 05:41:26;;;;;;;6.32;1.73;;;;;;;19.03;59.24;101395.91;5113472;28;20074;-60
2023/07/17 05:43:54;;;;;;;6.50;2.33;;;;;;;19.07;58.75;101396.84;5075252;28;20051;-62
2023/07/17 05:46:21;;;;;;;13.98;2.15;;;;;;;18.66;59.96;101402.72;5092412;28;20442;-61
2023/07/17 05:48:49;;;;;;;9.88;2.00;;;;;;;18.40;61.23;101411.47;5094458;28;20052;-60
2023/07/17 05:51:19;;;;;;;11.00;2.00;;;;;;;18.66;60.89;101405.50;5102500;28;20055;-62
2023/07/17 05:53:47;;;;;;;9.25;2.25;;;;;;;18.69;60.58;101407.63;5102064;28;20172;-61
2023/07/17 05:56:16;;;;;;;11.17;2.20;;;;;;;18.40;61.60;101411.47;5093141;28;20051;-62
2023/07/17 05:58:44;;;;;;;7.68;2.33;;;;;;;18.49;61.41;101414.13;5099870;28;20779;-62
2023/07/17 06:01:14;;;;;;;12.07;2.33;;;;;;;18.63;61.01;101420.19;5099645;27;20058;-60
2023/07/17 06:03:41;;;;;;;7.38;2.40;;;;;;;18.86;60.80;101421.31;5092577;28;20044;-63
2023/07/17 06:06:09;;;;;;;7.38;2.00;;;;;;;18.82;60.22;101425.97;5108684;28;20043;-64
2023/07/17 06:08:36;;;;;;;9.32;2.83;;;;;;;18.79;60.50;101435.06;5113339;28;20059;-63
2023/07/17 06:11:03;;;;;;;8.65;2.05;;;;;;;18.86;60.55;101429.69;5091242;28;20043;-62
2023/07/17 06:13:31;;;;;;;10.00;2.05;;;;;;;18.76;60.70;101433.75;5112759;28;20039;-61
2023/07/17 06:15:58;;;;;;;11.15;2.42;;;;;;;18.90;60.15;101438.97;5109848;28;20054;-61
2023/07/17 06:18:26;;;;;;;7.32;2.20;;;;;;;19.09;59.72;101433.56;5113923;28;20512;-62
2023/07/17 06:20:53;;;;;;;11.95;2.05;;;;;;;18.68;60.78;101442.25;5113067;28;20044;-61
2023/07/17 06:23:21;;;;;;;10.77;2.40;;;;;;;18.81;60.67;101435.50;5075553;28;20075;-62
2023/07/17 06:25:48;;;;;;;10.80;2.42;;;;;;;18.78;60.02;101433.41;5112475;28;20062;-63
2023/07/17 06:28:15;;;;;;;10.02;2.00;;;;;;;18.63;60.65;101436.91;5113867;28;20039;-61
2023/07/17 06:30:46;;;;;;;10.25;2.40;;;;;;;19.02;60.14;101433.38;5111895;28;20360;-61
2023/07/17 06:33:14;;;;;;;11.45;2.53;;;;;;;18.88;60.00;101433.75;5113563;28;20050;-61
2023/07/17 06:35:43;;;;;;;8.65;2.92;;;;;;;18.98;60.21;101438.84;5113999;28;20482;-62
2023/07/17 06:38:11;;;;;;;8.90;2.80;;;;;;;19.12;59.78;101432.88;5122982;28;20059;-61
2023/07/17 06:40:38;;;;;;;8.10;2.17;;;;;;;18.99;59.72;101434.06;5130624;28;20047;-62
2023/07/17 06:43:06;;;;;;;7.55;2.10;;;;;;;18.84;60.67;101432.84;5113671;28;20055;-62
2023/07/17 06:45:34;;;;;;;15.95;2.70;;;;;;;18.75;61.52;101440.53;5109680;28;20055;-61
2023/07/17 06:48:01;;;;;;;10.07;2.55;;;;;;;19.12;60.23;101444.06;5113572;28;20058;-62
2023/07/17 06:50:29;;;;;;;12.52;2.72;;;;;;;19.37;59.25;101440.03;5113528;28;20048;-65
2023/07/17 06:52:56;;;;;;;7.68;2.05;;;;;;;19.50;57.99;101450.00;5112164;28;20043;-61
2023/07/17 06:55:24;;;;;;;11.55;3.00;;;;;;;19.06;59.26;101449.06;5112454;28;20067;-61
2023/07/17 06:57:51;;;;;;;10.32;2.90;;;;;;;18.96;60.07;101445.94;5111118;28;20386;-61
2023/07/17 07:00:19;;;;;;;10.65;2.67;;;;;;;19.18;59.28;101453.00;5110364;28;20534;-61
2023/07/17 07:02:46;;;;;;;8.50;2.53;;;;;;;19.13;58.81;101461.59;5110172;28;20048;-62
2023/07/17 07:05:13;;;;;;;12.30;2.30;;;;;;;19.19;59.32;101457.41;5107615;28;20059;-61
2023/07/17 07:07:41;;;;;;;9.15;2.50;;;;;;;19.30;59.00;101453.78;5112187;28;20039;-62
2023/07/17 07:10:08;;;;;;;11.43;2.58;;;;;;;19.45;58.62;101455.84;5092405;28;20047;-63
2023/07/17 07:12:36;;;;;;;14.27;2.35;;;;;;;19.87;57.42;101456.22;5105802;28;20599;-63
2023/07/17 07:15:05;;;;;;;13.52;3.00;;;;;;;20.12;56.25;101454.91;5107558;28;20047;-63
2023/07/17 07:17:32;;;;;;;10.98;2.60;;;;;;;20.11;54.73;101458.88;5108751;28;20040;-61
2023/07/17 07:20:00;;;;;;;8.95;2.83;;;;;;;19.88;55.71;101455.88;5108338;28;20078;-61
2023/07/17 07:22:27;;;;;;;14.80;2.42;;;;;;;19.90;56.34;101459.13;5109034;28;20047;-62
2023/07/17 07:24:54;;;;;;;9.63;2.55;;;;;;;20.27;55.25;101458.91;5112071;28;20052;-61
2023/07/17 07:27:22;;;;;;;12.23;3.10;;;;;;;20.20;55.00;101462.34;5096148;28;20036;-61
2023/07/17 07:29:50;;;;;;;11.07;2.72;;;;;;;20.29;54.41;101464.97;5112844;28;20046;-61
2023/07/17 07:32:17;;;;;;;11.85;2.33;;;;;;;20.67;52.05;101462.31;5107584;28;20060;-60
2023/07/17 07:34:44;;;;;;;12.68;3.28;;;;;;;20.84;51.83;101459.94;5025410;28;20042;-61
2023/07/17 07:37:12;;;;;;;13.05;2.60;;;;;;;21.16;50.77;101455.94;5105768;28;20047;-62
2023/07/17 07:39:39;;;;;;;10.32;2.90;;;;;;;21.20;50.52;101462.41;5108522;27;20056;-62
2023/07/17 07:42:06;;;;;;;9.55;3.30;;;;;;;21.42;49.21;101465.66;5109790;28;20071;-61
2023/07/17 07:44:34;;;;;;;11.85;3.30;;;;;;;20.95;49.39;101475.03;5111848;28;20047;-62
2023/07/17 07:47:02;;;;;;;9.25;2.70;;;;;;;20.94;50.23;101464.97;5107449;27;20047;-66
2023/07/17 07:49:29;;;;;;;12.27;3.08;;;;;;;21.09;50.06;101480.16;5111341;27;20055;-62
2023/07/17 07:51:56;;;;;;;8.70;2.53;;;;;;;21.12;49.85;101477.44;5112714;28;20055;-62
2023/07/17 07:54:24;;;;;;;11.15;3.33;;;;;;;21.54;49.52;101471.13;5113664;27;20059;-60
2023/07/17 07:56:51;;;;;;;9.13;2.95;;;;;;;21.97;48.06;101471.63;5108288;28;20059;-62
2023/07/17 07:59:19;;;;;;;11.60;2.70;;;;;;;21.76;47.99;101468.38;5109014;27;20083;-63
2023/07/17 08:01:46;;;;;;;9.23;2.80;;;;;;;21.83;47.90;101470.53;5105696;28;20051;-62
2023/07/17 08:04:14;;;;;;;11.32;3.03;;;;;;;21.96;47.21;101472.81;5107561;28;20059;-62
2023/07/17 08:06:41;;;;;;;9.52;3.03;;;;;;;22.03;46.43;101472.94;5089528;28;20067;-62
2023/07/17 08:09:09;;;;;;;8.30;3.58;;;;;;;21.78;46.70;101471.66;5089746;28;20895;-62
2023/07/17 08:11:36;;;;;;;10.55;3.10;;;;;;;21.69;47.19;101478.66;5105091;27;20051;-61
2023/07/17 08:14:03;;;;;;;12.15;3.45;;;;;;;21.65;47.21;101484.19;5089407;28;20043;-61
2023/07/17 08:16:31;;;;;;;11.07;3.60;;;;;;;21.79;46.53;101476.06;5109797;28;20048;-61
2023/07/17 08:18:58;;;;;;;9.07;3.38;;;;;;;22.26;45.50;101482.19;5108704;28;20411;-63
2023/07/17 08:21:26;;;;;;;6.75;2.83;;;;;;;22.21;45.23;101481.69;5090323;28;20044;-62
2023/07/17 08:23:53;;;;;;;8.82;2.80;;;;;;;22.48;45.15;101489.00;5106930;27;20070;-62
2023/07/17 08:26:20;;;;;;;10.40;3.63;;;;;;;22.36;44.63;101489.19;5107889;28;20047;-64
2023/07/17 08:28:48;;;;;;;13.20;3.42;;;;;;;21.89;45.38;101488.69;5108888;27;20047;-65
2023/07/17 08:31:16;;;;;;;10.55;3.75;;;;;;;22.08;45.83;101497.91;5089870;28;20807;-63
2023/07/17 08:33:44;;;;;;;10.30;3.25;;;;;;;21.43;46.72;101496.13;5092687;28;20052;-62
2023/07/17 08:36:12;;;;;;;10.02;3.17;;;;;;;21.70;46.72;101497.09;5105884;27;20043;-63
2023/07/17 08:38:39;;;;;;;7.90;3.30;;;;;;;21.73;46.45;101490.75;5107028;27;20394;-61
2023/07/17 08:41:07;;;;;;;12.55;3.10;;;;;;;21.94;45.55;101491.19;5104998;27;20052;-60
2023/07/17 08:43:36;;;;;;;7.97;3.42;;;;;;;21.64;46.73;101490.16;5108835;28;20407;-61
2023/07/17 08:46:04;;;;;;;13.40;3.67;;;;;;;21.78;46.56;101491.28;5086346;28;20058;-62
2023/07/17 08:48:31;;;;;;;13.45;3.70;;;;;;;21.69;46.52;101487.84;5102950;28;20305;-61
2023/07/17 08:51:00;;;;;;;8.77;3.10;;;;;;;21.92;46.24;101482.34;5086198;28;20681;-61
2023/07/17 08:53:27;;;;;;;10.00;3.55;;;;;;;22.14;45.46;101490.00;5073336;28;20054;-61
2023/07/17 08:55:56;;;;;;;11.13;3.10;;;;;;;21.94;45.94;101491.19;5107300;28;20047;-60
2023/07/17 08:58:24;;;;;;;11.90;3.17;;;;;;;21.98;45.38;101484.47;5103987;27;20044;-62
2023/07/17 09:00:51;;;;;;;11.75;3.17;;;;;;;22.01;45.06;101494.97;5109261;28;20054;-62
2023/07/17 09:03:19;;;;;;;10.98;2.92;;;;;;;21.34;46.89;101495.53;5105867;27;20047;-61
2023/07/17 09:05:47;;;;;;;12.02;4.07;;;;;;;21.65;46.60;101491.78;5106705;28;20059;-62
2023/07/17 09:08:14;;;;;;;9.50;3.00;;;;;;;22.18;45.36;101491.66;5090685;28;20048;-62
2023/07/17 09:10:42;;;;;;;7.90;2.60;;;;;;;22.02;44.75;101490.97;5106933;28;20438;-59
2023/07/17 09:13:09;;;;;;;7.68;2.40;;;;;;;21.71;45.21;101498.69;5105124;28;20051;-60
2023/07/17 09:15:38;;;;;;;10.25;3.13;;;;;;;21.81;45.59;101496.16;5084968;28;20047;-59
2023/07/17 09:18:05;;;;;;;9.95;2.65;;;;;;;22.73;44.17;101489.44;5104108;28;20055;-60
2023/07/17 09:20:33;;;;;;;10.80;2.88;;;;;;;22.60;42.76;101497.25;5104333;28;20047;-61
2023/07/17 09:23:01;;;;;;;9.23;2.72;;;;;;;22.58;43.11;101496.81;5082882;28;20060;-61
2023/07/17 09:25:30;;;;;;;9.23;3.25;;;;;;;22.44;43.49;101498.53;5085906;28;20508;-61
2023/07/17 09:27:57;;;;;;;10.55;2.92;;;;;;;22.12;43.94;101495.94;5088389;28;20044;-56
2023/07/17 09:30:26;;;;;;;18.98;2.60;;;;;;;22.46;42.79;101496.97;5103271;28;20052;-62
2023/07/17 09:33:05;;;;;;;9.63;2.50;;;;;;;22.78;42.18;101497.53;5105333;27;20055;-61
2023/07/17 09:35:35;;;;;;;8.43;2.20;;;;;;;22.70;41.54;101490.19;5109948;28;20059;-59
2023/07/17 09:38:08;;;;;;;11.98;2.97;;;;;;;22.66;41.49;101498.56;5083448;28;20056;-62
2023/07/17 09:40:35;;;;;;;8.77;2.67;;;;;;;22.84;41.74;101496.03;5102705;28;20063;-60
2023/07/17 09:43:05;;;;;;;10.93;2.13;;;;;;;22.93;41.68;101497.38;5088356;28;20082;-58
2023/07/17 09:45:33;;;;;;;9.10;2.53;;;;;;;22.79;41.75;101493.53;5087805;28;20054;-60
2023/07/17 09:48:00;;;;;;;11.57;2.60;;;;;;;23.11;41.71;101487.22;5105066;28;20047;-59
2023/07/17 09:50:29;;;;;;;11.10;2.80;;;;;;;23.39;41.46;101493.28;5088740;28;20332;-60
2023/07/17 09:52:59;;;;;;;8.00;2.53;;;;;;;23.60;40.80;101491.91;5101430;28;20051;-61
2023/07/17 09:55:30;;;;;;;10.15;2.50;;;;;;;23.56;40.66;101488.25;5106858;27;20047;-59
2023/07/17 09:57:59;;;;;;;13.02;2.33;;;;;;;23.61;40.67;101491.53;5105909;28;20799;-62
2023/07/17 10:00:27;;;;;;;7.82;2.67;;;;;;;23.14;40.51;101492.09;5106337;28;20039;-61
2023/07/17 10:03:17;;;;;;;9.23;2.60;;;;;;;22.48;42.18;101489.00;5086933;28;20047;-58
2023/07/17 10:05:45;;;;;;;8.90;2.53;;;;;;;22.35;42.02;101490.38;5105765;28;20059;-59
2023/07/17 10:08:13;;;;;;;9.02;2.25;;;;;;;22.04;42.84;101493.38;5089090;28;20056;-59
2023/07/17 10:10:41;;;;;;;7.00;2.38;;;;;;;22.07;43.30;101499.06;5107545;28;20048;-57
2023/07/17 10:13:09;;;;;;;5.45;1.90;;;;;;;22.09;43.26;101498.69;5105085;28;20604;-59
2023/07/17 10:15:37;;;;;;;7.03;3.20;;;;;;;22.26;42.94;101501.81;5100858;28;20706;-61
2023/07/17 10:18:10;;;;;;;7.68;3.40;;;;;;;22.42;42.68;101495.28;5085723;28;20051;-61
2023/07/17 10:20:39;;;;;;;7.63;3.30;;;;;;;22.30;43.16;101499.91;5101854;28;20080;-61
2023/07/17 10:23:18;;;;;;;12.15;5.90;;;;;;;22.24;42.42;101495.81;5101982;27;20063;-62
2023/07/17 10:25:46;;;;;;;8.43;2.85;;;;;;;22.04;43.61;101493.38;5086886;28;20042;-61
2023/07/17 10:28:13;;;;;;;9.77;2.67;;;;;;;22.20;42.65;101494.91;5089056;28;20052;-61
2023/07/17 10:30:47;;;;;;;11.30;3.70;;;;;;;22.15;43.22;101489.63;5089429;28;20047;-62
2023/07/17 10:33:16;;;;;;;9.93;4.20;;;;;;;22.52;42.91;101495.47;5106884;28;20122;-63
2023/07/17 10:35:56;;;;;;;7.35;3.33;;;;;;;22.28;42.69;101491.03;5100856;28;20052;-59
2023/07/17 10:38:28;;;;;;;9.05;3.08;;;;;;;22.30;42.67;101491.47;5105508;28;20052;-61
2023/07/17 10:41:04;;;;;;;14.05;5.68;;;;;;;22.31;42.63;101495.09;5106243;28;20742;-60
2023/07/17 10:43:33;;;;;;;9.70;4.38;;;;;;;22.79;41.64;101485.09;5109315;28;20059;-60
2023/07/17 10:46:10;;;;;;;9.77;5.47;;;;;;;23.00;41.00;101486.25;5109632;28;20048;-62
2023/07/17 10:48:39;;;;;;;17.27;8.43;;;;;;;22.77;41.34;101495.94;5107398;28;20488;-62
2023/07/17 10:51:07;;;;;;;14.65;4.28;;;;;;;22.90;40.97;101488.91;5106581;28;20379;-60
2023/07/17 10:53:34;;;;;;;17.08;10.30;;;;;;;23.10;40.54;101490.41;5110778;28;20078;-60
2023/07/17 10:56:02;;;;;;;9.52;3.60;;;;;;;23.60;39.52;101501.19;5105124;27;20055;-61
2023/07/17 10:58:29;;;;;;;8.05;3.78;;;;;;;23.61;39.33;101482.28;5110174;27;20102;-58
2023/07/17 11:00:57;;;;;;;16.30;10.18;;;;;;;23.77;39.66;101488.50;5093530;28;20052;-60
2023/07/17 11:03:26;;;;;;;13.18;5.53;;;;;;;23.80;38.45;101488.56;5109468;28;20047;-57
2023/07/17 11:05:57;;;;;;;12.20;5.32;;;;;;;23.83;38.88;101499.06;5111996;27;20047;-62
2023/07/17 11:08:26;;;;;;;35.85;17.35;;;;;;;23.72;37.96;101494.47;5109087;28;20082;-61
2023/07/17 11:10:54;;;;;;;30.95;17.95;;;;;;;23.67;38.61;101492.00;5109631;28;20039;-60
2023/07/17 11:13:21;;;;;;;17.42;9.30;;;;;;;23.80;38.22;101491.38;5110265;27;20036;-60
2023/07/17 11:15:49;;;;;;;13.75;6.72;;;;;;;23.93;37.99;101494.72;5106321;28;20052;-60
2023/07/17 11:18:16;;;;;;;12.65;5.55;;;;;;;23.61;38.34;101490.72;5087713;28;20043;-59
2023/07/17 11:20:44;;;;;;;11.65;4.38;;;;;;;23.98;38.11;101498.00;5102582;28;20052;-59
2023/07/17 11:23:11;;;;;;;7.60;2.85;;;;;;;23.33;39.04;101497.59;5087594;28;20512;-57
2023/07/17 11:25:40;;;;;;;11.02;4.05;;;;;;;23.54;39.35;101494.25;5109529;28;20044;-60